sensor_id;sensor_type;location;lat;lon;timestamp;pressure;altitude;pressure_sealevel;temperature;humidity
44734;BME280;30462;52.446;-1.930;2023-04-26T00:00:19;100455.8828;;;;
44734;BME280;30462;52.446;-1.930;2023-04-26T00:01:18;100457.5625;;;;
44734;BME280;30462;52.446;-1.930;2023-04-26T00:02:18;100453.6953;;;;
44734;BME280;30462;52.446;-1.930;2023-04-26T00:03:17;100452.8359;;;;
44734;BME280;30462;52.446;-1.930;2023-04-26T00:04:18;100454.332;;;;
44734;BME280;30462;52.446;-1.930;2023-04-26T00:05:18;100449.3984;;;;
44734;BME280;30462;52.446;-1.930;2023-04-26T00:06:18;100447.9844;;;;
44734;BME280;30462;52.446;-1.930;2023-04-26T00:07:18;100449.1797;;;;
44734;BME280;30462;52.446;-1.930;2023-04-26T00:08:18;100450.1563;;;;
44734;BME280;30462;52.446;-1.930;2023-04-26T00:09:17;100446.9297;;;;
44734;BME280;30462;52.446;-1.930;2023-04-26T00:10:18;100448.6758;;;;
44734;BME280;30462;52.446;-1.930;2023-04-26T00:11:18;100449.75;;;;
44734;BME280;30462;52.446;-1.930;2023-04-26T00:12:18;100449.1875;;;;
44734;BME280;30462;52.446;-1.930;2023-04-26T00:13:18;100446.3086;;;;
44734;BME280;30462;52.446;-1.930;2023-04-26T00:14:18;100448.2734;;;;
44734;BME280;30462;52.446;-1.930;2023-04-26T00:15:18;100445.2148;;;;
44734;BME280;30462;52.446;-1.930;2023-04-26T00:16:18;100442.9922;;;;
44734;BME280;30462;52.446;-1.930;2023-04-26T00:17:17;100441.9844;;;;
44734;BME280;30462;52.446;-1.930;2023-04-26T00:18:18;100443.3164;;;;
44734;BME280;30462;52.446;-1.930;2023-04-26T00:19:18;100445.8086;;;;
44734;BME280;30462;52.446;-1.930;2023-04-26T00:20:18;100445.0234;;;;
44734;BME280;30462;52.446;-1.930;2023-04-26T00:21:18;100448.4297;;;;
44734;BME280;30462;52.446;-1.930;2023-04-26T00:22:18;100450.8281;;;;
44734;BME280;30462;52.446;-1.930;2023-04-26T00:23:18;100453.9883;;;;
44734;BME280;30462;52.446;-1.930;2023-04-26T00:24:18;100455.7188;;;;
44734;BME280;30462;52.446;-1.930;2023-04-26T00:25:18;100452.7188;;;;
44734;BME280;30462;52.446;-1.930;2023-04-26T00:26:17;100449.9844;;;;
44734;BME280;30462;52.446;-1.930;2023-04-26T00:27:18;100448.582;;;;
44734;BME280;30462;52.446;-1.930;2023-04-26T00:28:18;100447.6602;;;;
44734;BME280;30462;52.446;-1.930;2023-04-26T00:29:18;100443.9922;;;;
44734;BME280;30462;52.446;-1.930;2023-04-26T00:30:18;100447.2773;;;;
44734;BME280;30462;52.446;-1.930;2023-04-26T00:31:18;100443.6328;;;;
44734;BME280;30462;52.446;-1.930;2023-04-26T00:32:18;100442.7734;;;;
44734;BME280;30462;52.446;-1.930;2023-04-26T00:33:18;100439.4688;;;;
44734;BME280;30462;52.446;-1.930;2023-04-26T00:34:18;100438.9531;;;;
44734;BME280;30462;52.446;-1.930;2023-04-26T00:35:18;100432.5156;;;;
44734;BME280;30462;52.446;-1.930;2023-04-26T00:36:18;100432.4023;;;;
44734;BME280;30462;52.446;-1.930;2023-04-26T00:37:18;100431.8555;;;;
44734;BME280;30462;52.446;-1.930;2023-04-26T00:38:17;100433.5039;;;;
44734;BME280;30462;52.446;-1.930;2023-04-26T00:39:18;100429.9023;;;;
44734;BME280;30462;52.446;-1.930;2023-04-26T00:40:18;100429.9297;;;;
44734;BME280;30462;52.446;-1.930;2023-04-26T00:41:18;100434.6484;;;;
44734;BME280;30462;52.446;-1.930;2023-04-26T00:42:18;100430.6523;;;;
44734;BME280;30462;52.446;-1.930;2023-04-26T00:43:18;100430.7305;;;;
44734;BME280;30462;52.446;-1.930;2023-04-26T00:44:18;100428.3086;;;;
44734;BME280;30462;52.446;-1.930;2023-04-26T00:45:18;100427.2188;;;;
44734;BME280;30462;52.446;-1.930;2023-04-26T00:46:18;100423.6133;;;;
44734;BME280;30462;52.446;-1.930;2023-04-26T00:47:18;100427.7969;;;;
44734;BME280;30462;52.446;-1.930;2023-04-26T00:48:18;100429.1797;;;;
44734;BME280;30462;52.446;-1.930;2023-04-26T00:49:18;100432.3125;;;;
44734;BME280;30462;52.446;-1.930;2023-04-26T00:50:18;100434.5313;;;;
44734;BME280;30462;52.446;-1.930;2023-04-26T00:51:18;100437.8906;;;;
44734;BME280;30462;52.446;-1.930;2023-04-26T00:52:18;100432.418;;;;
44734;BME280;30462;52.446;-1.930;2023-04-26T00:53:18;100433.3008;;;;
44734;BME280;30462;52.446;-1.930;2023-04-26T00:54:19;100434.207;;;;
44734;BME280;30462;52.446;-1.930;2023-04-26T00:55:17;100433.1563;;;;
44734;BME280;30462;52.446;-1.930;2023-04-26T00:56:19;100431.7539;;;;
44734;BME280;30462;52.446;-1.930;2023-04-26T00:57:18;100429.9102;;;;
44734;BME280;30462;52.446;-1.930;2023-04-26T00:58:18;100431.8672;;;;
44734;BME280;30462;52.446;-1.930;2023-04-26T00:59:18;100433.9102;;;;
44734;BME280;30462;52.446;-1.930;2023-04-26T01:00:18;100438.7656;;;;
44734;BME280;30462;52.446;-1.930;2023-04-26T01:01:18;100440.1094;;;;
44734;BME280;30462;52.446;-1.930;2023-04-26T01:02:17;100440.625;;;;
44734;BME280;30462;52.446;-1.930;2023-04-26T01:03:18;100443.9102;;;;
44734;BME280;30462;52.446;-1.930;2023-04-26T01:04:18;100447.457;;;;
44734;BME280;30462;52.446;-1.930;2023-04-26T01:05:18;100447.6914;;;;
44734;BME280;30462;52.446;-1.930;2023-04-26T01:06:18;100445.7539;;;;
44734;BME280;30462;52.446;-1.930;2023-04-26T01:07:18;100443.2422;;;;
44734;BME280;30462;52.446;-1.930;2023-04-26T01:08:18;100442.5547;;;;
44734;BME280;30462;52.446;-1.930;2023-04-26T01:09:18;100442.7188;;;;
44734;BME280;30462;52.446;-1.930;2023-04-26T01:10:18;100441.5234;;;;
44734;BME280;30462;52.446;-1.930;2023-04-26T01:11:18;100442.5547;;;;
44734;BME280;30462;52.446;-1.930;2023-04-26T01:12:18;100443.4648;;;;
44734;BME280;30462;52.446;-1.930;2023-04-26T01:13:18;100441.4531;;;;
44734;BME280;30462;52.446;-1.930;2023-04-26T01:14:18;100446.4414;;;;
44734;BME280;30462;52.446;-1.930;2023-04-26T01:15:17;100445.7969;;;;
44734;BME280;30462;52.446;-1.930;2023-04-26T01:16:17;100444.9063;;;;
44734;BME280;30462;52.446;-1.930;2023-04-26T01:17:18;100444.7031;;;;
44734;BME280;30462;52.446;-1.930;2023-04-26T01:18:18;100446.5938;;;;
44734;BME280;30462;52.446;-1.930;2023-04-26T01:19:18;100442.1133;;;;
44734;BME280;30462;52.446;-1.930;2023-04-26T01:20:18;100444.5273;;;;
44734;BME280;30462;52.446;-1.930;2023-04-26T01:21:19;100436.5078;;;;
44734;BME280;30462;52.446;-1.930;2023-04-26T01:22:18;100441.9766;;;;
44734;BME280;30462;52.446;-1.930;2023-04-26T01:23:17;100445.0117;;;;
44734;BME280;30462;52.446;-1.930;2023-04-26T01:24:17;100441.832;;;;
44734;BME280;30462;52.446;-1.930;2023-04-26T01:25:18;100442.9414;;;;
44734;BME280;30462;52.446;-1.930;2023-04-26T01:26:18;100440.3984;;;;
44734;BME280;30462;52.446;-1.930;2023-04-26T01:27:18;100439.1523;;;;
44734;BME280;30462;52.446;-1.930;2023-04-26T01:28:18;100436.6367;;;;
44734;BME280;30462;52.446;-1.930;2023-04-26T01:29:19;100436.5391;;;;
44734;BME280;30462;52.446;-1.930;2023-04-26T01:30:18;100433.8164;;;;
44734;BME280;30462;52.446;-1.930;2023-04-26T01:31:18;100432.5;;;;
44734;BME280;30462;52.446;-1.930;2023-04-26T01:32:18;100435.0039;;;;
44734;BME280;30462;52.446;-1.930;2023-04-26T01:33:18;100432.8203;;;;
44734;BME280;30462;52.446;-1.930;2023-04-26T01:34:18;100432.5938;;;;
44734;BME280;30462;52.446;-1.930;2023-04-26T01:35:18;100427.1133;;;;
44734;BME280;30462;52.446;-1.930;2023-04-26T01:36:18;100427.7227;;;;
44734;BME280;30462;52.446;-1.930;2023-04-26T01:37:18;100432.0156;;;;
44734;BME280;30462;52.446;-1.930;2023-04-26T01:38:18;100431.9727;;;;
44734;BME280;30462;52.446;-1.930;2023-04-26T01:39:18;100429.3594;;;;
44734;BME280;30462;52.446;-1.930;2023-04-26T01:40:18;100427.7891;;;;
44734;BME280;30462;52.446;-1.930;2023-04-26T01:41:18;100430.0469;;;;
44734;BME280;30462;52.446;-1.930;2023-04-26T01:42:18;100431.8789;;;;
44734;BME280;30462;52.446;-1.930;2023-04-26T01:43:18;100429.875;;;;
44734;BME280;30462;52.446;-1.930;2023-04-26T01:44:18;100428.7969;;;;
44734;BME280;30462;52.446;-1.930;2023-04-26T01:45:18;100429.5781;;;;
44734;BME280;30462;52.446;-1.930;2023-04-26T01:46:18;100426.7813;;;;
44734;BME280;30462;52.446;-1.930;2023-04-26T01:47:18;100425.1992;;;;
44734;BME280;30462;52.446;-1.930;2023-04-26T01:48:18;100428.293;;;;
44734;BME280;30462;52.446;-1.930;2023-04-26T01:49:18;100427.1211;;;;
44734;BME280;30462;52.446;-1.930;2023-04-26T01:50:18;100427.4141;;;;
44734;BME280;30462;52.446;-1.930;2023-04-26T01:51:18;100425.5977;;;;
44734;BME280;30462;52.446;-1.930;2023-04-26T01:52:18;100425.1758;;;;
44734;BME280;30462;52.446;-1.930;2023-04-26T01:53:18;100420.375;;;;
44734;BME280;30462;52.446;-1.930;2023-04-26T01:54:18;100424.0469;;;;
44734;BME280;30462;52.446;-1.930;2023-04-26T01:55:17;100421.918;;;;
44734;BME280;30462;52.446;-1.930;2023-04-26T01:56:18;100419.4844;;;;
44734;BME280;30462;52.446;-1.930;2023-04-26T01:57:18;100422.1055;;;;
44734;BME280;30462;52.446;-1.930;2023-04-26T01:58:18;100421.0977;;;;
44734;BME280;30462;52.446;-1.930;2023-04-26T01:59:18;100420.7578;;;;
44734;BME280;30462;52.446;-1.930;2023-04-26T02:00:18;100416.1914;;;;
44734;BME280;30462;52.446;-1.930;2023-04-26T02:01:18;100417.4805;;;;
44734;BME280;30462;52.446;-1.930;2023-04-26T02:02:18;100416.5195;;;;
44734;BME280;30462;52.446;-1.930;2023-04-26T02:03:18;100416.6797;;;;
44734;BME280;30462;52.446;-1.930;2023-04-26T02:04:18;100417.4023;;;;
44734;BME280;30462;52.446;-1.930;2023-04-26T02:05:18;100414.2227;;;;
44734;BME280;30462;52.446;-1.930;2023-04-26T02:06:18;100411.8867;;;;
44734;BME280;30462;52.446;-1.930;2023-04-26T02:07:18;100415.1289;;;;
44734;BME280;30462;52.446;-1.930;2023-04-26T02:08:18;100412.043;;;;
44734;BME280;30462;52.446;-1.930;2023-04-26T02:09:17;100412.4258;;;;
44734;BME280;30462;52.446;-1.930;2023-04-26T02:10:18;100411.7383;;;;
44734;BME280;30462;52.446;-1.930;2023-04-26T02:11:18;100409.6836;;;;
44734;BME280;30462;52.446;-1.930;2023-04-26T02:12:18;100409.4648;;;;
44734;BME280;30462;52.446;-1.930;2023-04-26T02:13:18;100411.6172;;;;
44734;BME280;30462;52.446;-1.930;2023-04-26T02:14:17;100414.0156;;;;
44734;BME280;30462;52.446;-1.930;2023-04-26T02:15:17;100413.9609;;;;
44734;BME280;30462;52.446;-1.930;2023-04-26T02:16:17;100414.2031;;;;
44734;BME280;30462;52.446;-1.930;2023-04-26T02:17:18;100412.5898;;;;
44734;BME280;30462;52.446;-1.930;2023-04-26T02:18:17;100418.3555;;;;
44734;BME280;30462;52.446;-1.930;2023-04-26T02:19:18;100413.0117;;;;
44734;BME280;30462;52.446;-1.930;2023-04-26T02:20:18;100415.7305;;;;
44734;BME280;30462;52.446;-1.930;2023-04-26T02:21:19;100413.0352;;;;
44734;BME280;30462;52.446;-1.930;2023-04-26T02:22:18;100412.9336;;;;
44734;BME280;30462;52.446;-1.930;2023-04-26T02:23:18;100410.1367;;;;
44734;BME280;30462;52.446;-1.930;2023-04-26T02:24:17;100410.2969;;;;
44734;BME280;30462;52.446;-1.930;2023-04-26T02:25:18;100409.9727;;;;
44734;BME280;30462;52.446;-1.930;2023-04-26T02:26:18;100414.7422;;;;
44734;BME280;30462;52.446;-1.930;2023-04-26T02:27:18;100413.2813;;;;
44734;BME280;30462;52.446;-1.930;2023-04-26T02:28:18;100413.4609;;;;
44734;BME280;30462;52.446;-1.930;2023-04-26T02:29:18;100411.418;;;;
44734;BME280;30462;52.446;-1.930;2023-04-26T02:30:18;100410.1328;;;;
44734;BME280;30462;52.446;-1.930;2023-04-26T02:31:17;100410.0742;;;;
44734;BME280;30462;52.446;-1.930;2023-04-26T02:32:18;100407.6406;;;;
44734;BME280;30462;52.446;-1.930;2023-04-26T02:33:18;100409.1641;;;;
44734;BME280;30462;52.446;-1.930;2023-04-26T02:34:18;100404.4375;;;;
44734;BME280;30462;52.446;-1.930;2023-04-26T02:35:18;100406.9648;;;;
44734;BME280;30462;52.446;-1.930;2023-04-26T02:36:18;100408.4141;;;;
44734;BME280;30462;52.446;-1.930;2023-04-26T02:37:18;100408.9492;;;;
44734;BME280;30462;52.446;-1.930;2023-04-26T02:38:18;100409.7227;;;;
44734;BME280;30462;52.446;-1.930;2023-04-26T02:39:18;100412.043;;;;
44734;BME280;30462;52.446;-1.930;2023-04-26T02:40:18;100413.2109;;;;
44734;BME280;30462;52.446;-1.930;2023-04-26T02:41:18;100409.625;;;;
44734;BME280;30462;52.446;-1.930;2023-04-26T02:42:18;100412.293;;;;
44734;BME280;30462;52.446;-1.930;2023-04-26T02:43:18;100408.707;;;;
44734;BME280;30462;52.446;-1.930;2023-04-26T02:44:18;100411.7266;;;;
44734;BME280;30462;52.446;-1.930;2023-04-26T02:45:18;100413.5195;;;;
44734;BME280;30462;52.446;-1.930;2023-04-26T02:46:18;100416.1016;;;;
44734;BME280;30462;52.446;-1.930;2023-04-26T02:47:18;100411.625;;;;
44734;BME280;30462;52.446;-1.930;2023-04-26T02:48:18;100409.8516;;;;
44734;BME280;30462;52.446;-1.930;2023-04-26T02:49:18;100405.9219;;;;
44734;BME280;30462;52.446;-1.930;2023-04-26T02:50:17;100405.7734;;;;
44734;BME280;30462;52.446;-1.930;2023-04-26T02:51:17;100404.1523;;;;
44734;BME280;30462;52.446;-1.930;2023-04-26T02:52:17;100405.1641;;;;
44734;BME280;30462;52.446;-1.930;2023-04-26T02:53:18;100404.9922;;;;
44734;BME280;30462;52.446;-1.930;2023-04-26T02:54:18;100407.1133;;;;
44734;BME280;30462;52.446;-1.930;2023-04-26T02:55:18;100406.4766;;;;
44734;BME280;30462;52.446;-1.930;2023-04-26T02:56:18;100404.9609;;;;
44734;BME280;30462;52.446;-1.930;2023-04-26T02:57:18;100402.0469;;;;
44734;BME280;30462;52.446;-1.930;2023-04-26T02:58:17;100405.1094;;;;
44734;BME280;30462;52.446;-1.930;2023-04-26T02:59:17;100403.1445;;;;
44734;BME280;30462;52.446;-1.930;2023-04-26T03:00:18;100405.0078;;;;
44734;BME280;30462;52.446;-1.930;2023-04-26T03:01:18;100402.7773;;;;
44734;BME280;30462;52.446;-1.930;2023-04-26T03:02:18;100401.1523;;;;
44734;BME280;30462;52.446;-1.930;2023-04-26T03:03:18;100401.582;;;;
44734;BME280;30462;52.446;-1.930;2023-04-26T03:04:18;100401.6055;;;;
44734;BME280;30462;52.446;-1.930;2023-04-26T03:05:18;100394.7617;;;;
44734;BME280;30462;52.446;-1.930;2023-04-26T03:06:18;100398.8594;;;;
44734;BME280;30462;52.446;-1.930;2023-04-26T03:07:18;100397.4922;;;;
44734;BME280;30462;52.446;-1.930;2023-04-26T03:08:18;100399.1406;;;;
44734;BME280;30462;52.446;-1.930;2023-04-26T03:09:18;100401.8398;;;;
44734;BME280;30462;52.446;-1.930;2023-04-26T03:10:18;100402.1406;;;;
44734;BME280;30462;52.446;-1.930;2023-04-26T03:11:18;100400.4531;;;;
44734;BME280;30462;52.446;-1.930;2023-04-26T03:12:18;100398.3633;;;;
44734;BME280;30462;52.446;-1.930;2023-04-26T03:13:18;100400.1719;;;;
44734;BME280;30462;52.446;-1.930;2023-04-26T03:14:18;100396.7734;;;;
44734;BME280;30462;52.446;-1.930;2023-04-26T03:15:18;100397.8281;;;;
44734;BME280;30462;52.446;-1.930;2023-04-26T03:16:18;100400.2109;;;;
44734;BME280;30462;52.446;-1.930;2023-04-26T03:17:18;100400.9609;;;;
44734;BME280;30462;52.446;-1.930;2023-04-26T03:18:18;100401.6719;;;;
44734;BME280;30462;52.446;-1.930;2023-04-26T03:19:18;100399.5508;;;;
44734;BME280;30462;52.446;-1.930;2023-04-26T03:20:18;100398.9141;;;;
44734;BME280;30462;52.446;-1.930;2023-04-26T03:21:18;100399.6602;;;;
44734;BME280;30462;52.446;-1.930;2023-04-26T03:22:18;100397.9453;;;;
44734;BME280;30462;52.446;-1.930;2023-04-26T03:23:18;100397.0781;;;;
44734;BME280;30462;52.446;-1.930;2023-04-26T03:24:18;100395.8789;;;;
44734;BME280;30462;52.446;-1.930;2023-04-26T03:25:18;100396.1289;;;;
44734;BME280;30462;52.446;-1.930;2023-04-26T03:26:18;100394.3594;;;;
44734;BME280;30462;52.446;-1.930;2023-04-26T03:27:18;100395.582;;;;
44734;BME280;30462;52.446;-1.930;2023-04-26T03:28:18;100391.6328;;;;
44734;BME280;30462;52.446;-1.930;2023-04-26T03:29:18;100392.7188;;;;
44734;BME280;30462;52.446;-1.930;2023-04-26T03:30:18;100392.0078;;;;
44734;BME280;30462;52.446;-1.930;2023-04-26T03:31:18;100387.2617;;;;
44734;BME280;30462;52.446;-1.930;2023-04-26T03:32:18;100386.6016;;;;
44734;BME280;30462;52.446;-1.930;2023-04-26T03:33:18;100386.4297;;;;
44734;BME280;30462;52.446;-1.930;2023-04-26T03:34:18;100385.332;;;;
44734;BME280;30462;52.446;-1.930;2023-04-26T03:35:18;100385.8398;;;;
44734;BME280;30462;52.446;-1.930;2023-04-26T03:36:18;100384.0234;;;;
44734;BME280;30462;52.446;-1.930;2023-04-26T03:37:18;100384.0156;;;;
44734;BME280;30462;52.446;-1.930;2023-04-26T03:38:18;100379.9336;;;;
44734;BME280;30462;52.446;-1.930;2023-04-26T03:39:18;100378.8242;;;;
44734;BME280;30462;52.446;-1.930;2023-04-26T03:40:18;100379.0508;;;;
44734;BME280;30462;52.446;-1.930;2023-04-26T03:41:18;100377.8086;;;;
44734;BME280;30462;52.446;-1.930;2023-04-26T03:42:19;100378.8203;;;;
44734;BME280;30462;52.446;-1.930;2023-04-26T03:43:18;100376.0742;;;;
44734;BME280;30462;52.446;-1.930;2023-04-26T03:44:18;100375.3242;;;;
44734;BME280;30462;52.446;-1.930;2023-04-26T03:45:18;100372.2695;;;;
44734;BME280;30462;52.446;-1.930;2023-04-26T03:46:18;100371.082;;;;
44734;BME280;30462;52.446;-1.930;2023-04-26T03:47:18;100372.0664;;;;
44734;BME280;30462;52.446;-1.930;2023-04-26T03:48:18;100371.3828;;;;
44734;BME280;30462;52.446;-1.930;2023-04-26T03:49:18;100371.7422;;;;
44734;BME280;30462;52.446;-1.930;2023-04-26T03:50:18;100369.5117;;;;
44734;BME280;30462;52.446;-1.930;2023-04-26T03:51:18;100367.9922;;;;
44734;BME280;30462;52.446;-1.930;2023-04-26T03:52:18;100367.2188;;;;
44734;BME280;30462;52.446;-1.930;2023-04-26T03:53:18;100365.0664;;;;
44734;BME280;30462;52.446;-1.930;2023-04-26T03:54:18;100365.6445;;;;
44734;BME280;30462;52.446;-1.930;2023-04-26T03:55:18;100363.3867;;;;
44734;BME280;30462;52.446;-1.930;2023-04-26T03:56:18;100363.9805;;;;
44734;BME280;30462;52.446;-1.930;2023-04-26T03:57:18;100364.3203;;;;
44734;BME280;30462;52.446;-1.930;2023-04-26T03:58:18;100359.8398;;;;
44734;BME280;30462;52.446;-1.930;2023-04-26T03:59:18;100363.4883;;;;
44734;BME280;30462;52.446;-1.930;2023-04-26T04:00:17;100362.1445;;;;
44734;BME280;30462;52.446;-1.930;2023-04-26T04:01:17;100363.0156;;;;
44734;BME280;30462;52.446;-1.930;2023-04-26T04:02:18;100361.918;;;;
44734;BME280;30462;52.446;-1.930;2023-04-26T04:03:18;100365.3516;;;;
44734;BME280;30462;52.446;-1.930;2023-04-26T04:04:18;100358.3047;;;;
44734;BME280;30462;52.446;-1.930;2023-04-26T04:05:18;100360.1133;;;;
44734;BME280;30462;52.446;-1.930;2023-04-26T04:06:18;100361.4141;;;;
44734;BME280;30462;52.446;-1.930;2023-04-26T04:07:18;100362.3945;;;;
44734;BME280;30462;52.446;-1.930;2023-04-26T04:08:18;100364.3047;;;;
44734;BME280;30462;52.446;-1.930;2023-04-26T04:09:18;100360.0547;;;;
44734;BME280;30462;52.446;-1.930;2023-04-26T04:10:18;100362.5586;;;;
44734;BME280;30462;52.446;-1.930;2023-04-26T04:11:17;100361.3164;;;;
44734;BME280;30462;52.446;-1.930;2023-04-26T04:12:17;100356.3281;;;;
44734;BME280;30462;52.446;-1.930;2023-04-26T04:13:18;100356.4414;;;;
44734;BME280;30462;52.446;-1.930;2023-04-26T04:14:18;100354.3438;;;;
44734;BME280;30462;52.446;-1.930;2023-04-26T04:15:18;100352.0977;;;;
44734;BME280;30462;52.446;-1.930;2023-04-26T04:16:18;100349.4141;;;;
44734;BME280;30462;52.446;-1.930;2023-04-26T04:17:18;100354.9688;;;;
44734;BME280;30462;52.446;-1.930;2023-04-26T04:18:18;100352.4297;;;;
44734;BME280;30462;52.446;-1.930;2023-04-26T04:19:18;100349.6172;;;;
44734;BME280;30462;52.446;-1.930;2023-04-26T04:20:18;100345.6406;;;;
44734;BME280;30462;52.446;-1.930;2023-04-26T04:21:18;100344.8008;;;;
44734;BME280;30462;52.446;-1.930;2023-04-26T04:22:18;100343.3125;;;;
44734;BME280;30462;52.446;-1.930;2023-04-26T04:23:18;100343.8789;;;;
44734;BME280;30462;52.446;-1.930;2023-04-26T04:24:18;100341.9297;;;;
44734;BME280;30462;52.446;-1.930;2023-04-26T04:25:18;100346.9297;;;;
44734;BME280;30462;52.446;-1.930;2023-04-26T04:26:18;100345.5625;;;;
44734;BME280;30462;52.446;-1.930;2023-04-26T04:27:18;100349.2031;;;;
44734;BME280;30462;52.446;-1.930;2023-04-26T04:28:18;100350.3828;;;;
44734;BME280;30462;52.446;-1.930;2023-04-26T04:29:17;100354.2461;;;;
44734;BME280;30462;52.446;-1.930;2023-04-26T04:30:18;100352.0781;;;;
44734;BME280;30462;52.446;-1.930;2023-04-26T04:31:18;100354.1641;;;;
44734;BME280;30462;52.446;-1.930;2023-04-26T04:32:18;100354.4609;;;;
44734;BME280;30462;52.446;-1.930;2023-04-26T04:33:17;100354.4063;;;;
44734;BME280;30462;52.446;-1.930;2023-04-26T04:34:18;100358.0039;;;;
44734;BME280;30462;52.446;-1.930;2023-04-26T04:35:18;100360.2891;;;;
44734;BME280;30462;52.446;-1.930;2023-04-26T04:36:18;100363.3203;;;;
44734;BME280;30462;52.446;-1.930;2023-04-26T04:37:18;100363.2617;;;;
44734;BME280;30462;52.446;-1.930;2023-04-26T04:38:18;100364.3164;;;;
44734;BME280;30462;52.446;-1.930;2023-04-26T04:39:18;100364.8789;;;;
44734;BME280;30462;52.446;-1.930;2023-04-26T04:40:18;100360.6992;;;;
44734;BME280;30462;52.446;-1.930;2023-04-26T04:41:18;100358.9609;;;;
44734;BME280;30462;52.446;-1.930;2023-04-26T04:42:18;100359.2383;;;;
44734;BME280;30462;52.446;-1.930;2023-04-26T04:43:18;100358.8789;;;;
44734;BME280;30462;52.446;-1.930;2023-04-26T04:44:18;100357.0586;;;;
44734;BME280;30462;52.446;-1.930;2023-04-26T04:45:18;100356.5508;;;;
44734;BME280;30462;52.446;-1.930;2023-04-26T04:46:18;100357.7305;;;;
44734;BME280;30462;52.446;-1.930;2023-04-26T04:47:18;100359.1758;;;;
44734;BME280;30462;52.446;-1.930;2023-04-26T04:48:18;100361.5234;;;;
44734;BME280;30462;52.446;-1.930;2023-04-26T04:49:18;100365.9375;;;;
44734;BME280;30462;52.446;-1.930;2023-04-26T04:50:18;100367.6836;;;;
44734;BME280;30462;52.446;-1.930;2023-04-26T04:51:18;100368.2344;;;;
44734;BME280;30462;52.446;-1.930;2023-04-26T04:52:18;100369.332;;;;
44734;BME280;30462;52.446;-1.930;2023-04-26T04:53:18;100373.1914;;;;
44734;BME280;30462;52.446;-1.930;2023-04-26T04:54:18;100375.4531;;;;
44734;BME280;30462;52.446;-1.930;2023-04-26T04:55:18;100374.9805;;;;
44734;BME280;30462;52.446;-1.930;2023-04-26T04:56:18;100378.0313;;;;
44734;BME280;30462;52.446;-1.930;2023-04-26T04:57:18;100377.7578;;;;
44734;BME280;30462;52.446;-1.930;2023-04-26T04:58:18;100377.3594;;;;
44734;BME280;30462;52.446;-1.930;2023-04-26T04:59:18;100379.0117;;;;
44734;BME280;30462;52.446;-1.930;2023-04-26T05:00:19;100375.6133;;;;
44734;BME280;30462;52.446;-1.930;2023-04-26T05:01:18;100376.543;;;;
44734;BME280;30462;52.446;-1.930;2023-04-26T05:02:18;100377.1875;;;;
44734;BME280;30462;52.446;-1.930;2023-04-26T05:03:18;100381.7734;;;;
44734;BME280;30462;52.446;-1.930;2023-04-26T05:04:18;100382.0898;;;;
44734;BME280;30462;52.446;-1.930;2023-04-26T05:05:18;100381.082;;;;
44734;BME280;30462;52.446;-1.930;2023-04-26T05:06:18;100383.6367;;;;
44734;BME280;30462;52.446;-1.930;2023-04-26T05:07:18;100382.2656;;;;
44734;BME280;30462;52.446;-1.930;2023-04-26T05:08:17;100380.6016;;;;
44734;BME280;30462;52.446;-1.930;2023-04-26T05:09:18;100383.3516;;;;
44734;BME280;30462;52.446;-1.930;2023-04-26T05:10:18;100387.0625;;;;
44734;BME280;30462;52.446;-1.930;2023-04-26T05:11:18;100387.8711;;;;
44734;BME280;30462;52.446;-1.930;2023-04-26T05:12:18;100392.6563;;;;
44734;BME280;30462;52.446;-1.930;2023-04-26T05:13:18;100389.9883;;;;
44734;BME280;30462;52.446;-1.930;2023-04-26T05:14:18;100388.0508;;;;
44734;BME280;30462;52.446;-1.930;2023-04-26T05:15:18;100386.8594;;;;
44734;BME280;30462;52.446;-1.930;2023-04-26T05:16:18;100382.6289;;;;
44734;BME280;30462;52.446;-1.930;2023-04-26T05:17:18;100382.8203;;;;
44734;BME280;30462;52.446;-1.930;2023-04-26T05:18:18;100384.918;;;;
44734;BME280;30462;52.446;-1.930;2023-04-26T05:19:18;100383.2891;;;;
44734;BME280;30462;52.446;-1.930;2023-04-26T05:20:17;100387.7852;;;;
44734;BME280;30462;52.446;-1.930;2023-04-26T05:21:17;100385.6406;;;;
44734;BME280;30462;52.446;-1.930;2023-04-26T05:22:18;100390.4766;;;;
44734;BME280;30462;52.446;-1.930;2023-04-26T05:23:18;100389.8438;;;;
44734;BME280;30462;52.446;-1.930;2023-04-26T05:24:18;100389.9063;;;;
44734;BME280;30462;52.446;-1.930;2023-04-26T05:25:18;100388.9844;;;;
44734;BME280;30462;52.446;-1.930;2023-04-26T05:26:18;100392.6328;;;;
44734;BME280;30462;52.446;-1.930;2023-04-26T05:27:17;100393.1406;;;;
44734;BME280;30462;52.446;-1.930;2023-04-26T05:28:18;100395.2188;;;;
44734;BME280;30462;52.446;-1.930;2023-04-26T05:29:18;100397.1641;;;;
44734;BME280;30462;52.446;-1.930;2023-04-26T05:30:18;100394.6719;;;;
44734;BME280;30462;52.446;-1.930;2023-04-26T05:31:18;100394.7227;;;;
44734;BME280;30462;52.446;-1.930;2023-04-26T05:32:18;100395.3164;;;;
44734;BME280;30462;52.446;-1.930;2023-04-26T05:33:18;100390.6055;;;;
44734;BME280;30462;52.446;-1.930;2023-04-26T05:34:17;100389.9297;;;;
44734;BME280;30462;52.446;-1.930;2023-04-26T05:35:18;100385.5938;;;;
44734;BME280;30462;52.446;-1.930;2023-04-26T05:36:17;100387.4102;;;;
44734;BME280;30462;52.446;-1.930;2023-04-26T05:37:18;100389.3242;;;;
44734;BME280;30462;52.446;-1.930;2023-04-26T05:38:18;100391.0273;;;;
44734;BME280;30462;52.446;-1.930;2023-04-26T05:39:18;100390.5469;;;;
44734;BME280;30462;52.446;-1.930;2023-04-26T05:40:18;100393.543;;;;
44734;BME280;30462;52.446;-1.930;2023-04-26T05:41:18;100393.0078;;;;
44734;BME280;30462;52.446;-1.930;2023-04-26T05:42:18;100395.7695;;;;
44734;BME280;30462;52.446;-1.930;2023-04-26T05:43:18;100393.7617;;;;
44734;BME280;30462;52.446;-1.930;2023-04-26T05:44:18;100397.6172;;;;
44734;BME280;30462;52.446;-1.930;2023-04-26T05:45:18;100396.4219;;;;